Latest Weather Observations for Truscott

IDD60801

Issued at 11:02 am CST Saturday 28 February 2015 (issued every 30 minutes, with the page automatically refreshed every 10 minutes)

About weather observations | Map of weather stations | Latest weather observations for NT | Other Formats
Station Details ID: 001020 Name: TRUSCOTT Lat: -14.09 Lon: 126.39 Height: 51.0 m
Data from the previous 72 hours. | See also: Recent months at Truscott
Date/Time
CST
Temp
°C
App
Temp
°C
Dew
Point
Rel
Hum
%
Delta-T
°C
Wind Press
QNH
hPa
Press
MSL
hPa
Rain
since 9 am
mm
Dir
 
Spd
km/h
Gust
km/h
Spd
kts
Gust
kts
28/11:00am 30.9 34.4 24.8 70 4.3 W 15 20 8 11 1008.4 - 0.0
28/10:48am 31.4 35.3 24.8 68 4.7 WSW 13 17 7 9 1008.3 - 0.0
28/10:35am 30.5 34.6 24.6 70 4.1 W 11 17 6 9 1008.3 - 0.0
28/10:30am 30.3 34.7 25.1 73 3.7 W 11 17 6 9 1008.3 1007.7 0.0
28/10:00am 30.3 35.4 25.6 76 3.3 W 9 17 5 9 1008.5 - 0.0
28/09:30am 29.4 34.4 25.4 79 2.8 SW 9 13 5 7 1008.9 - 0.0
28/09:00am 28.8 34.3 25.6 83 2.3 SW 7 9 4 5 1008.8 - 0.0
28/08:30am 27.9 33.3 25.5 87 1.7 S 7 11 4 6 1008.3 - 0.0
28/08:00am 27.1 32.9 25.7 92 1.0 S 6 9 3 5 1007.7 - 0.0
28/07:30am 26.4 32.8 25.5 95 0.6 SE 2 6 1 3 1007.4 1006.8 0.0
28/07:00am 26.4 32.0 25.7 96 0.5 S 7 9 4 5 1007.2 - 0.0
28/06:30am 26.6 33.1 25.6 94 0.7 ESE 2 6 1 3 1006.8 - 0.0
28/06:00am 26.9 33.2 25.3 91 1.1 S 2 7 1 4 1006.5 - 0.0
28/05:30am 27.7 32.9 25.1 86 1.8 W 7 11 4 6 1006.2 - 0.0
28/05:00am 27.8 32.3 25.2 86 1.8 W 11 15 6 8 1005.9 - 0.0
28/04:30am 27.6 32.5 25.2 87 1.7 WNW 9 13 5 7 1006.0 1005.4 0.0
28/04:00am 27.5 33.1 25.7 90 1.3 WNW 7 11 4 6 1006.1 - 0.0
28/03:30am 27.4 32.8 25.4 89 1.4 WNW 7 9 4 5 1006.1 - 0.0
28/03:07am 27.7 32.5 25.1 86 1.8 W 9 11 5 6 1006.4 - 0.0
28/03:00am 27.6 32.5 25.2 87 1.7 W 9 13 5 7 1006.5 - 0.0
28/02:56am 27.6 32.6 25.4 88 1.5 WNW 9 13 5 7 1006.5 - 0.0
28/02:30am 27.8 32.7 25.8 89 1.4 W 11 17 6 9 1006.6 - 0.0
28/02:00am 27.7 32.8 25.5 88 1.5 W 9 11 5 6 1007.0 - 0.0
28/01:30am 27.7 33.0 25.9 90 1.3 W 9 11 5 6 1007.2 1006.6 0.0
28/01:00am 27.5 33.1 25.7 90 1.3 W 7 11 4 6 1007.5 - 0.0
28/12:30am 27.7 33.0 25.3 87 1.7 WSW 7 11 4 6 1008.0 - 0.0
28/12:00am 27.7 33.1 25.5 88 1.5 W 7 9 4 5 1008.3 - 0.0
 
Date/Time
CST
Temp
°C
App
Temp
°C
Dew
Point
Rel
Hum
%
Delta-T
°C
Wind Press
QNH
hPa
Press
MSL
hPa
Rain
since 9 am
mm
Dir
 
Spd
km/h
Gust
km/h
Spd
kts
Gust
kts
27/11:30pm 27.5 33.0 25.3 88 1.5 W 6 7 3 4 1008.4 - 0.0
27/11:00pm 28.0 33.4 25.2 85 2.0 W 6 7 3 4 1008.2 - 0.0
27/10:30pm 28.3 32.9 25.3 84 2.1 WNW 11 17 6 9 1008.1 1007.5 0.0
27/10:00pm 28.3 32.9 25.3 84 2.1 WNW 11 15 6 8 1008.2 - 0.0
27/09:30pm 28.2 33.2 25.4 85 2.0 NW 9 13 5 7 1007.7 - 0.0
27/09:00pm 28.3 32.9 25.3 84 2.1 NW 11 17 6 9 1007.4 - 0.0
27/08:30pm 28.4 32.9 25.8 86 1.8 NW 13 20 7 11 1007.0 - 0.0
27/08:00pm 28.4 32.8 25.0 82 2.4 WNW 11 19 6 10 1006.9 - 0.0
27/07:30pm 27.9 33.3 25.1 85 2.0 W 6 9 3 5 1006.3 1005.7 0.0
27/07:00pm 27.9 33.0 24.9 84 2.1 WNW 7 9 4 5 1005.6 - 0.0
27/06:30pm 27.8 33.0 24.8 84 2.1 NW 6 9 3 5 1004.7 - 0.0
27/06:00pm 27.1 31.7 24.2 84 2.0 NW 7 9 4 5 1004.0 - 0.0
27/05:30pm 26.6 30.9 23.3 82 2.3 W 6 9 3 5 1004.1 - 0.0
27/05:00pm 26.5 30.6 23.2 82 2.3 S 7 9 4 5 1005.3 - 0.0
27/04:30pm 26.6 30.3 22.2 77 3.0 SSW 6 9 3 5 1005.5 1004.9 0.0
27/04:00pm 26.1 29.7 22.4 80 2.5 S 7 11 4 6 1005.3 - 0.0
27/03:30pm 25.5 28.6 22.2 82 2.2 SSW 9 17 5 9 1005.3 - 0.0
27/03:00pm 25.1 26.3 21.4 80 2.5 S 17 24 9 13 1006.4 - 0.0
27/02:30pm 27.4 27.5 21.2 69 4.1 S 22 33 12 18 1006.8 - 0.0
27/02:00pm 28.1 32.1 23.7 77 3.0 WNW 9 11 5 6 1006.8 - 0.0
27/01:30pm 29.1 31.8 23.5 72 3.9 WNW 15 22 8 12 1007.0 1006.4 0.0
27/01:00pm 29.5 32.3 25.3 78 3.0 WNW 20 32 11 17 1007.5 - 0.0
27/12:30pm 30.9 34.2 23.8 66 4.9 W 13 20 7 11 1008.1 - 0.0
27/12:00pm 31.1 34.8 24.5 68 4.6 WNW 13 19 7 10 1008.4 - 0.0
27/11:30am 30.8 34.8 24.4 68 4.5 WNW 11 17 6 9 1008.0 - 0.0
27/11:00am 30.9 34.5 23.8 66 4.9 W 11 19 6 10 1008.0 - 0.0
27/10:30am 29.9 33.6 24.5 73 3.8 W 13 20 7 11 1008.1 1007.5 0.0
27/10:00am 30.0 33.7 23.9 70 4.2 WNW 11 17 6 9 1008.1 - 0.0
27/09:30am 29.6 33.1 24.2 73 3.8 W 13 17 7 9 1008.0 - 0.0
27/09:00am 29.1 33.0 24.9 78 2.9 W 13 17 7 9 1007.9 - 0.0
27/08:30am 28.8 32.8 25.0 80 2.7 WNW 13 19 7 10 1007.5 - 0.0
27/08:00am 28.0 33.8 25.2 85 2.0 W 4 6 2 3 1007.2 - 0.0
27/07:30am 27.3 32.8 25.3 89 1.4 W 6 7 3 4 1006.9 1006.3 0.0
27/07:00am 26.7 33.2 25.1 91 1.1 CALM 0 0 0 0 1006.8 - 0.0
27/06:30am 27.1 32.5 25.1 89 1.4 WNW 6 7 3 4 1006.6 - 0.0
27/06:00am 27.0 31.6 24.8 88 1.5 NW 9 11 5 6 1006.2 - 0.0
27/05:30am 27.3 32.4 24.7 86 1.8 WNW 6 9 3 5 1006.0 - 0.0
27/05:00am 27.5 32.8 24.9 86 1.8 NW 6 9 3 5 1005.7 - 0.0
27/04:30am 27.6 32.3 25.0 86 1.8 WNW 9 15 5 8 1005.0 1004.5 0.0
27/04:00am 27.8 32.7 25.2 86 1.8 W 9 11 5 6 1004.8 - 0.0
27/03:30am 28.0 32.9 25.2 85 2.0 W 9 15 5 8 1005.4 - 0.0
27/03:00am 28.0 32.7 25.6 87 1.7 WNW 11 15 6 8 1005.8 - 0.0
27/02:30am 27.8 32.8 25.4 87 1.7 WNW 9 11 5 6 1006.3 - 0.0
27/02:00am 27.9 32.7 25.1 85 2.0 WNW 9 15 5 8 1006.7 - 0.0
27/01:30am 28.0 33.0 25.4 86 1.8 WNW 9 13 5 7 1007.2 1006.6 0.0
27/01:00am 28.1 33.7 25.7 87 1.7 NW 7 13 4 7 1007.8 - 0.0
27/12:30am 28.0 33.5 25.6 87 1.7 WNW 7 9 4 5 1008.2 - 0.0
27/12:00am 28.3 33.7 25.5 85 2.0 W 7 9 4 5 1008.3 - 0.0
 
Date/Time
CST
Temp
°C
App
Temp
°C
Dew
Point
Rel
Hum
%
Delta-T
°C
Wind Press
QNH
hPa
Press
MSL
hPa
Rain
since 9 am
mm
Dir
 
Spd
km/h
Gust
km/h
Spd
kts
Gust
kts
26/11:30pm 28.6 33.2 25.4 83 2.3 WNW 11 17 6 9 1008.4 - 0.0
26/11:00pm 28.6 33.6 25.4 83 2.3 WNW 9 15 5 8 1008.5 - 0.0
26/10:30pm 28.7 33.3 25.3 82 2.4 W 11 15 6 8 1008.5 1007.9 0.0
26/10:00pm 28.8 34.3 25.6 83 2.3 W 7 11 4 6 1008.2 - 0.0
26/09:30pm 28.6 33.5 25.2 82 2.4 WNW 9 15 5 8 1007.8 - 0.0
26/09:00pm 28.7 33.1 25.1 81 2.5 WNW 11 15 6 8 1007.4 - 0.0
26/08:30pm 28.9 33.7 25.1 80 2.7 W 9 13 5 7 1007.4 - 0.0
26/08:00pm 28.9 33.5 24.7 78 2.9 WNW 9 15 5 8 1006.8 - 0.0
26/07:30pm 29.2 33.2 25.0 78 3.0 WNW 13 19 7 10 1006.3 1005.7 0.0
26/07:00pm 29.6 33.3 25.1 77 3.2 WNW 15 20 8 11 1005.7 - 0.0
26/06:30pm 30.3 34.0 25.1 73 3.7 WNW 15 22 8 12 1004.8 - 0.0
26/06:00pm 30.1 34.0 24.9 73 3.7 NW 13 22 7 12 1004.7 - 0.0
26/05:30pm 29.9 33.8 25.4 77 3.2 NNW 15 22 8 12 1004.4 - 0.0
26/05:00pm 30.0 33.3 25.1 75 3.5 NNW 17 26 9 14 1004.4 - 0.0
26/04:30pm 31.2 34.9 25.1 70 4.3 NW 15 22 8 12 1004.2 1003.7 0.0
26/04:00pm 31.8 34.7 23.9 63 5.5 WNW 15 22 8 12 1004.4 - 0.0
26/03:30pm 31.7 35.7 25.1 68 4.7 NW 13 20 7 11 1005.2 - 0.0
26/03:00pm 31.4 35.1 24.5 67 4.8 WNW 13 22 7 12 1005.6 - 0.0
26/02:30pm 31.2 35.5 25.5 71 4.0 NNW 13 19 7 10 1006.2 - 0.0
26/02:00pm 30.9 35.0 24.5 68 4.5 W 11 17 6 9 1006.6 - 0.0
26/01:30pm 30.7 34.3 24.4 69 4.4 WNW 13 20 7 11 1006.9 1006.3 0.0
26/01:00pm 30.9 35.3 25.7 74 3.7 NW 13 17 7 9 1007.3 - 0.0
26/12:30pm 30.8 34.0 24.4 68 4.5 WNW 15 20 8 11 1007.5 - 0.0
26/12:00pm 31.4 34.7 23.2 61 5.7 NW 11 17 6 9 1007.9 - 0.0
26/11:30am 30.8 34.7 24.2 68 4.6 NW 11 15 6 8 1008.2 - 0.0
26/11:00am 30.6 34.7 24.5 70 4.3 W 11 17 6 9 1008.5 - 0.0
26/10:30am 30.2 34.4 24.8 73 3.8 W 11 19 6 10 1008.7 1008.1 0.2
26/10:00am 29.8 34.6 25.1 76 3.3 WNW 9 15 5 8 1008.7 - 0.2
26/09:30am 29.3 34.4 25.5 80 2.7 WNW 9 15 5 8 1008.7 - 0.2
26/09:00am 29.0 33.9 25.2 80 2.7 W 9 13 5 7 1008.4 - 0.2
26/08:30am 28.3 33.7 25.5 85 2.0 W 7 11 4 6 1008.1 - 0.2
26/08:00am 27.8 33.5 25.6 88 1.6 WSW 6 7 3 4 1007.7 - 0.2
26/07:30am 27.5 33.1 25.5 89 1.4 WSW 6 7 3 4 1007.5 1006.9 0.2
26/07:00am 27.5 33.9 25.5 89 1.4 WNW 2 9 1 5 1007.2 - 0.2
26/06:30am 27.4 34.1 25.4 89 1.4 CALM 0 6 0 3 1007.1 - 0.2
26/06:00am 27.4 33.0 25.4 89 1.4 WNW 6 7 3 4 1007.0 - 0.2
26/05:30am 27.3 34.1 25.5 90 1.3 CALM 0 0 0 0 1007.1 - 0.2
26/05:00am 27.3 32.8 25.3 89 1.4 NW 6 9 3 5 1006.7 - 0.2
26/04:30am 27.5 33.0 25.3 88 1.5 NW 6 9 3 5 1006.6 1006.0 0.2
26/04:00am 27.6 32.5 25.2 87 1.7 WNW 9 13 5 7 1006.5 - 0.2
26/03:30am 27.5 32.3 25.1 87 1.7 WNW 9 15 5 8 1006.8 - 0.2
26/03:00am 27.5 32.1 25.3 88 1.5 WNW 11 15 6 8 1007.2 - 0.2
26/02:30am 27.5 32.6 25.5 89 1.4 W 9 15 5 8 1007.7 - 0.2
26/02:00am 27.9 32.7 25.1 85 2.0 W 9 13 5 7 1008.4 - 0.0
26/01:30am 27.9 32.6 24.9 84 2.1 WNW 9 11 5 6 1008.3 1007.7 0.0
26/01:00am 27.8 33.1 25.2 86 1.8 NW 7 11 4 6 1008.3 - 0.0
26/12:30am 27.7 34.5 25.5 88 1.5 CALM 0 0 0 0 1008.7 - 0.0
26/12:00am 27.6 33.0 25.2 87 1.7 NW 6 7 3 4 1008.7 - 0.0
 
Date/Time
CST
Temp
°C
App
Temp
°C
Dew
Point
Rel
Hum
%
Delta-T
°C
Wind Press
QNH
hPa
Press
MSL
hPa
Rain
since 9 am
mm
Dir
 
Spd
km/h
Gust
km/h
Spd
kts
Gust
kts
25/11:30pm 27.7 33.7 24.9 85 2.0 NW 2 6 1 3 1009.1 - 0.0
25/11:00pm 27.8 32.8 24.8 84 2.1 NW 7 9 4 5 1009.1 - 0.0
25/10:30pm 27.9 33.1 25.1 85 2.0 N 7 11 4 6 1009.5 1008.9 0.0
25/10:00pm 28.0 34.1 25.0 84 2.1 N 2 7 1 4 1009.9 - 0.0
25/09:30pm 28.2 33.3 25.0 83 2.2 N 7 9 4 5 1009.5 - 0.0
25/09:00pm 28.3 33.4 24.9 82 2.4 NNW 7 9 4 5 1009.1 - 0.0
25/08:30pm 28.5 33.1 24.1 77 3.1 N 7 9 4 5 1008.7 - 0.0
25/08:00pm 28.5 32.8 24.3 78 2.9 NNW 9 13 5 7 1007.9 - 0.0
25/07:30pm 28.5 33.2 24.3 78 2.9 NW 7 11 4 6 1007.4 1006.8 0.0
25/07:00pm 28.7 33.1 24.5 78 2.9 NNW 9 13 5 7 1007.1 - 0.0
25/06:30pm 28.9 32.8 24.2 76 3.3 N 11 15 6 8 1007.3 - 0.0
25/06:00pm 29.3 32.8 24.2 74 3.5 NNW 13 20 7 11 1006.0 - 0.0
25/05:30pm 29.8 33.2 24.7 74 3.6 NNW 15 20 8 11 1005.9 - 0.0
25/05:00pm 29.7 33.4 24.6 74 3.6 NNW 13 20 7 11 1005.6 - 0.0
25/04:30pm 30.4 33.6 24.3 70 4.3 N 15 22 8 12 1005.8 1005.2 0.0
25/04:00pm 30.3 33.3 24.7 72 3.9 NNW 17 24 9 13 1006.1 - 0.0
25/03:30pm 30.6 33.5 24.5 70 4.3 NNW 17 24 9 13 1006.3 - 0.0
25/03:00pm 30.7 32.9 22.6 62 5.5 NW 15 22 8 12 1006.4 - 0.0
25/02:30pm 30.5 33.0 23.2 65 5.0 N 15 22 8 12 1007.1 - 0.0
25/02:00pm 30.8 34.0 24.4 68 4.5 NNW 15 22 8 12 1007.6 - 0.0
25/01:30pm 30.3 32.8 23.2 65 4.9 NNW 15 24 8 13 1008.1 1007.5 0.0
25/01:00pm 30.5 33.5 23.4 66 4.9 N 13 19 7 10 1008.5 - 0.0

Other Formats:

Comma delimited format used in spreadsheet applications
http://www.bom.gov.au/fwo/IDD60801/IDD60801.95101.axf

JavaScript Object Notation format (JSON) in row-major order
http://www.bom.gov.au/fwo/IDD60801/IDD60801.95101.json